sensor_id;sensor_type;location;lat;lon;timestamp;P1;durP1;ratioP1;P2;durP2;ratioP2
18435;SDS011;9346;52.006;4.720;2023-06-10T00:00:30;7.80;;;5.50;;
18435;SDS011;9346;52.006;4.720;2023-06-10T00:02:57;7.63;;;6.03;;
18435;SDS011;9346;52.006;4.720;2023-06-10T00:05:24;6.33;;;5.53;;
18435;SDS011;9346;52.006;4.720;2023-06-10T00:07:55;6.23;;;5.40;;
18435;SDS011;9346;52.006;4.720;2023-06-10T00:10:22;6.33;;;5.37;;
18435;SDS011;9346;52.006;4.720;2023-06-10T00:12:49;6.33;;;5.70;;
18435;SDS011;9346;52.006;4.720;2023-06-10T00:15:18;5.40;;;4.90;;
18435;SDS011;9346;52.006;4.720;2023-06-10T00:17:45;6.50;;;5.47;;
18435;SDS011;9346;52.006;4.720;2023-06-10T00:20:12;6.80;;;6.10;;
18435;SDS011;9346;52.006;4.720;2023-06-10T00:22:39;7.80;;;5.63;;
18435;SDS011;9346;52.006;4.720;2023-06-10T00:25:10;6.17;;;5.53;;
18435;SDS011;9346;52.006;4.720;2023-06-10T00:27:37;8.53;;;5.17;;
18435;SDS011;9346;52.006;4.720;2023-06-10T00:30:05;9.43;;;5.90;;
18435;SDS011;9346;52.006;4.720;2023-06-10T00:32:34;6.30;;;5.10;;
18435;SDS011;9346;52.006;4.720;2023-06-10T00:35:02;6.27;;;5.20;;
18435;SDS011;9346;52.006;4.720;2023-06-10T00:37:30;6.10;;;5.40;;
18435;SDS011;9346;52.006;4.720;2023-06-10T00:39:57;5.77;;;4.83;;
18435;SDS011;9346;52.006;4.720;2023-06-10T00:42:24;8.00;;;5.17;;
18435;SDS011;9346;52.006;4.720;2023-06-10T00:44:51;6.10;;;5.03;;
18435;SDS011;9346;52.006;4.720;2023-06-10T00:47:18;8.47;;;5.50;;
18435;SDS011;9346;52.006;4.720;2023-06-10T00:49:47;8.50;;;5.67;;
18435;SDS011;9346;52.006;4.720;2023-06-10T00:52:14;5.60;;;4.40;;
18435;SDS011;9346;52.006;4.720;2023-06-10T00:54:43;7.07;;;5.27;;
18435;SDS011;9346;52.006;4.720;2023-06-10T00:57:10;7.53;;;5.00;;
18435;SDS011;9346;52.006;4.720;2023-06-10T00:59:39;6.50;;;5.20;;
18435;SDS011;9346;52.006;4.720;2023-06-10T01:02:07;6.60;;;5.73;;
18435;SDS011;9346;52.006;4.720;2023-06-10T01:04:34;7.27;;;5.30;;
18435;SDS011;9346;52.006;4.720;2023-06-10T01:07:05;5.63;;;4.77;;
18435;SDS011;9346;52.006;4.720;2023-06-10T01:09:41;6.27;;;4.70;;
18435;SDS011;9346;52.006;4.720;2023-06-10T01:12:16;6.90;;;5.00;;
18435;SDS011;9346;52.006;4.720;2023-06-10T01:14:49;5.47;;;4.87;;
18435;SDS011;9346;52.006;4.720;2023-06-10T01:17:17;7.27;;;4.97;;
18435;SDS011;9346;52.006;4.720;2023-06-10T01:19:44;6.63;;;4.80;;
18435;SDS011;9346;52.006;4.720;2023-06-10T01:22:22;6.40;;;5.00;;
18435;SDS011;9346;52.006;4.720;2023-06-10T01:24:50;5.53;;;4.27;;
18435;SDS011;9346;52.006;4.720;2023-06-10T01:27:19;7.67;;;5.07;;
18435;SDS011;9346;52.006;4.720;2023-06-10T01:29:50;5.67;;;5.07;;
18435;SDS011;9346;52.006;4.720;2023-06-10T01:32:23;5.17;;;4.27;;
18435;SDS011;9346;52.006;4.720;2023-06-10T01:34:56;5.47;;;4.47;;
18435;SDS011;9346;52.006;4.720;2023-06-10T01:37:25;7.40;;;5.23;;
18435;SDS011;9346;52.006;4.720;2023-06-10T01:39:54;5.67;;;4.63;;
18435;SDS011;9346;52.006;4.720;2023-06-10T01:42:23;6.10;;;4.80;;
18435;SDS011;9346;52.006;4.720;2023-06-10T01:44:52;5.67;;;5.03;;
18435;SDS011;9346;52.006;4.720;2023-06-10T01:47:19;6.20;;;4.93;;
18435;SDS011;9346;52.006;4.720;2023-06-10T01:49:46;5.47;;;3.90;;
18435;SDS011;9346;52.006;4.720;2023-06-10T01:52:13;6.63;;;4.07;;
18435;SDS011;9346;52.006;4.720;2023-06-10T01:54:41;6.23;;;4.17;;
18435;SDS011;9346;52.006;4.720;2023-06-10T01:57:08;4.90;;;4.30;;
18435;SDS011;9346;52.006;4.720;2023-06-10T01:59:36;6.00;;;4.90;;
18435;SDS011;9346;52.006;4.720;2023-06-10T02:02:04;7.70;;;4.93;;
18435;SDS011;9346;52.006;4.720;2023-06-10T02:04:32;7.77;;;4.07;;
18435;SDS011;9346;52.006;4.720;2023-06-10T02:06:58;4.30;;;3.90;;
18435;SDS011;9346;52.006;4.720;2023-06-10T02:09:29;7.73;;;4.70;;
18435;SDS011;9346;52.006;4.720;2023-06-10T02:11:58;7.10;;;5.00;;
18435;SDS011;9346;52.006;4.720;2023-06-10T02:14:24;7.37;;;4.17;;
18435;SDS011;9346;52.006;4.720;2023-06-10T02:16:51;4.93;;;4.27;;
18435;SDS011;9346;52.006;4.720;2023-06-10T02:19:21;5.77;;;3.57;;
18435;SDS011;9346;52.006;4.720;2023-06-10T02:21:48;4.63;;;3.87;;
18435;SDS011;9346;52.006;4.720;2023-06-10T02:24:15;6.33;;;4.30;;
18435;SDS011;9346;52.006;4.720;2023-06-10T02:26:42;6.53;;;4.43;;
18435;SDS011;9346;52.006;4.720;2023-06-10T02:29:11;6.77;;;4.67;;
18435;SDS011;9346;52.006;4.720;2023-06-10T02:31:38;4.47;;;3.77;;
18435;SDS011;9346;52.006;4.720;2023-06-10T02:34:06;5.93;;;4.17;;
18435;SDS011;9346;52.006;4.720;2023-06-10T02:36:33;5.57;;;4.13;;
18435;SDS011;9346;52.006;4.720;2023-06-10T02:39:01;4.43;;;3.83;;
18435;SDS011;9346;52.006;4.720;2023-06-10T02:41:28;5.87;;;3.83;;
18435;SDS011;9346;52.006;4.720;2023-06-10T02:43:55;4.47;;;3.47;;
18435;SDS011;9346;52.006;4.720;2023-06-10T02:46:24;6.27;;;4.17;;
18435;SDS011;9346;52.006;4.720;2023-06-10T02:48:51;5.80;;;3.97;;
18435;SDS011;9346;52.006;4.720;2023-06-10T02:51:18;5.43;;;3.63;;
18435;SDS011;9346;52.006;4.720;2023-06-10T02:53:46;4.53;;;3.70;;
18435;SDS011;9346;52.006;4.720;2023-06-10T02:56:13;5.30;;;3.77;;
18435;SDS011;9346;52.006;4.720;2023-06-10T02:58:42;5.93;;;3.70;;
18435;SDS011;9346;52.006;4.720;2023-06-10T03:01:09;6.37;;;3.57;;
18435;SDS011;9346;52.006;4.720;2023-06-10T03:03:38;5.83;;;3.77;;
18435;SDS011;9346;52.006;4.720;2023-06-10T03:06:07;4.50;;;3.77;;
18435;SDS011;9346;52.006;4.720;2023-06-10T03:08:35;4.50;;;3.70;;
18435;SDS011;9346;52.006;4.720;2023-06-10T03:11:02;4.13;;;3.40;;
18435;SDS011;9346;52.006;4.720;2023-06-10T03:13:29;6.60;;;3.57;;
18435;SDS011;9346;52.006;4.720;2023-06-10T03:15:56;5.13;;;3.50;;
18435;SDS011;9346;52.006;4.720;2023-06-10T03:18:25;5.67;;;3.90;;
18435;SDS011;9346;52.006;4.720;2023-06-10T03:20:55;6.87;;;3.30;;
18435;SDS011;9346;52.006;4.720;2023-06-10T03:23:22;5.70;;;3.63;;
18435;SDS011;9346;52.006;4.720;2023-06-10T03:25:49;4.53;;;3.20;;
18435;SDS011;9346;52.006;4.720;2023-06-10T03:28:16;5.37;;;4.07;;
18435;SDS011;9346;52.006;4.720;2023-06-10T03:30:43;4.77;;;3.57;;
18435;SDS011;9346;52.006;4.720;2023-06-10T03:33:10;6.07;;;3.73;;
18435;SDS011;9346;52.006;4.720;2023-06-10T03:35:37;4.17;;;3.10;;
18435;SDS011;9346;52.006;4.720;2023-06-10T03:38:06;5.10;;;3.73;;
18435;SDS011;9346;52.006;4.720;2023-06-10T03:40:33;5.63;;;3.10;;
18435;SDS011;9346;52.006;4.720;2023-06-10T03:43:00;6.30;;;3.50;;
18435;SDS011;9346;52.006;4.720;2023-06-10T03:45:27;5.27;;;3.57;;
18435;SDS011;9346;52.006;4.720;2023-06-10T03:47:54;4.83;;;3.10;;
18435;SDS011;9346;52.006;4.720;2023-06-10T03:50:22;4.47;;;3.33;;
18435;SDS011;9346;52.006;4.720;2023-06-10T03:52:50;4.47;;;2.93;;
18435;SDS011;9346;52.006;4.720;2023-06-10T03:55:18;5.17;;;3.57;;
18435;SDS011;9346;52.006;4.720;2023-06-10T03:57:46;5.40;;;3.30;;
18435;SDS011;9346;52.006;4.720;2023-06-10T04:00:14;5.73;;;3.23;;
18435;SDS011;9346;52.006;4.720;2023-06-10T04:02:42;5.10;;;3.50;;
18435;SDS011;9346;52.006;4.720;2023-06-10T04:05:13;4.70;;;3.40;;
18435;SDS011;9346;52.006;4.720;2023-06-10T04:07:40;5.10;;;3.77;;
18435;SDS011;9346;52.006;4.720;2023-06-10T04:10:09;4.27;;;3.23;;
18435;SDS011;9346;52.006;4.720;2023-06-10T04:12:39;7.77;;;3.63;;
18435;SDS011;9346;52.006;4.720;2023-06-10T04:15:06;4.53;;;3.37;;
18435;SDS011;9346;52.006;4.720;2023-06-10T04:17:34;6.73;;;3.20;;
18435;SDS011;9346;52.006;4.720;2023-06-10T04:20:01;5.57;;;3.43;;
18435;SDS011;9346;52.006;4.720;2023-06-10T04:22:31;3.63;;;3.20;;
18435;SDS011;9346;52.006;4.720;2023-06-10T04:24:58;4.53;;;3.03;;
18435;SDS011;9346;52.006;4.720;2023-06-10T04:27:25;5.10;;;3.17;;
18435;SDS011;9346;52.006;4.720;2023-06-10T04:29:54;5.33;;;3.57;;
18435;SDS011;9346;52.006;4.720;2023-06-10T04:32:21;4.23;;;3.40;;
18435;SDS011;9346;52.006;4.720;2023-06-10T04:34:48;4.30;;;3.53;;
18435;SDS011;9346;52.006;4.720;2023-06-10T04:37:15;5.63;;;3.30;;
18435;SDS011;9346;52.006;4.720;2023-06-10T04:39:42;5.83;;;3.43;;
18435;SDS011;9346;52.006;4.720;2023-06-10T04:42:09;5.97;;;3.80;;
18435;SDS011;9346;52.006;4.720;2023-06-10T04:44:37;3.50;;;3.00;;
18435;SDS011;9346;52.006;4.720;2023-06-10T04:47:05;5.37;;;3.47;;
18435;SDS011;9346;52.006;4.720;2023-06-10T04:49:33;5.47;;;3.73;;
18435;SDS011;9346;52.006;4.720;2023-06-10T04:52:00;3.77;;;3.03;;
18435;SDS011;9346;52.006;4.720;2023-06-10T04:54:29;6.83;;;3.47;;
18435;SDS011;9346;52.006;4.720;2023-06-10T04:56:57;4.20;;;2.83;;
18435;SDS011;9346;52.006;4.720;2023-06-10T04:59:25;4.77;;;3.33;;
18435;SDS011;9346;52.006;4.720;2023-06-10T05:01:52;7.30;;;3.37;;
18435;SDS011;9346;52.006;4.720;2023-06-10T05:04:21;5.40;;;3.60;;
18435;SDS011;9346;52.006;4.720;2023-06-10T05:06:48;4.53;;;3.50;;
18435;SDS011;9346;52.006;4.720;2023-06-10T05:09:15;5.30;;;3.63;;
18435;SDS011;9346;52.006;4.720;2023-06-10T05:11:42;6.03;;;4.10;;
18435;SDS011;9346;52.006;4.720;2023-06-10T05:14:09;3.40;;;2.67;;
18435;SDS011;9346;52.006;4.720;2023-06-10T05:16:36;5.10;;;3.70;;
18435;SDS011;9346;52.006;4.720;2023-06-10T05:19:03;6.53;;;3.63;;
18435;SDS011;9346;52.006;4.720;2023-06-10T05:21:32;4.00;;;3.23;;
18435;SDS011;9346;52.006;4.720;2023-06-10T05:23:59;4.97;;;3.63;;
18435;SDS011;9346;52.006;4.720;2023-06-10T05:26:26;5.50;;;3.10;;
18435;SDS011;9346;52.006;4.720;2023-06-10T05:28:53;6.33;;;3.60;;
18435;SDS011;9346;52.006;4.720;2023-06-10T05:31:21;3.93;;;3.07;;
18435;SDS011;9346;52.006;4.720;2023-06-10T05:33:48;6.77;;;3.43;;
18435;SDS011;9346;52.006;4.720;2023-06-10T05:36:15;5.13;;;3.73;;
18435;SDS011;9346;52.006;4.720;2023-06-10T05:38:46;5.53;;;3.37;;
18435;SDS011;9346;52.006;4.720;2023-06-10T05:41:13;4.90;;;3.77;;
18435;SDS011;9346;52.006;4.720;2023-06-10T05:43:39;6.37;;;3.53;;
18435;SDS011;9346;52.006;4.720;2023-06-10T05:46:07;4.73;;;3.40;;
18435;SDS011;9346;52.006;4.720;2023-06-10T05:48:33;6.63;;;3.50;;
18435;SDS011;9346;52.006;4.720;2023-06-10T05:51:00;4.80;;;3.20;;
18435;SDS011;9346;52.006;4.720;2023-06-10T05:53:27;7.87;;;3.93;;
18435;SDS011;9346;52.006;4.720;2023-06-10T05:55:56;6.53;;;3.87;;
18435;SDS011;9346;52.006;4.720;2023-06-10T05:58:23;3.97;;;3.10;;
18435;SDS011;9346;52.006;4.720;2023-06-10T06:00:50;4.67;;;3.23;;
18435;SDS011;9346;52.006;4.720;2023-06-10T06:03:17;7.37;;;3.50;;
18435;SDS011;9346;52.006;4.720;2023-06-10T06:05:44;5.30;;;3.33;;
18435;SDS011;9346;52.006;4.720;2023-06-10T06:08:11;5.13;;;3.57;;
18435;SDS011;9346;52.006;4.720;2023-06-10T06:10:42;3.60;;;2.93;;
18435;SDS011;9346;52.006;4.720;2023-06-10T06:13:10;6.83;;;3.37;;
18435;SDS011;9346;52.006;4.720;2023-06-10T06:15:37;7.37;;;3.43;;
18435;SDS011;9346;52.006;4.720;2023-06-10T06:18:04;3.67;;;3.03;;
18435;SDS011;9346;52.006;4.720;2023-06-10T06:20:31;3.73;;;3.20;;
18435;SDS011;9346;52.006;4.720;2023-06-10T06:22:58;5.20;;;4.20;;
18435;SDS011;9346;52.006;4.720;2023-06-10T06:25:25;7.20;;;5.07;;
18435;SDS011;9346;52.006;4.720;2023-06-10T06:27:52;7.23;;;3.63;;
18435;SDS011;9346;52.006;4.720;2023-06-10T06:30:20;10.20;;;3.80;;
18435;SDS011;9346;52.006;4.720;2023-06-10T06:32:47;5.23;;;3.87;;
18435;SDS011;9346;52.006;4.720;2023-06-10T06:35:14;4.70;;;3.50;;
18435;SDS011;9346;52.006;4.720;2023-06-10T06:37:40;4.13;;;2.97;;
18435;SDS011;9346;52.006;4.720;2023-06-10T06:40:08;4.73;;;3.40;;
18435;SDS011;9346;52.006;4.720;2023-06-10T06:42:35;5.20;;;3.70;;
18435;SDS011;9346;52.006;4.720;2023-06-10T06:45:02;6.83;;;4.10;;
18435;SDS011;9346;52.006;4.720;2023-06-10T06:47:32;4.50;;;3.00;;
18435;SDS011;9346;52.006;4.720;2023-06-10T06:49:59;6.30;;;3.87;;
18435;SDS011;9346;52.006;4.720;2023-06-10T06:52:27;3.73;;;3.07;;
18435;SDS011;9346;52.006;4.720;2023-06-10T06:54:54;8.30;;;3.90;;
18435;SDS011;9346;52.006;4.720;2023-06-10T06:57:20;5.03;;;3.67;;
18435;SDS011;9346;52.006;4.720;2023-06-10T06:59:48;4.10;;;3.23;;
18435;SDS011;9346;52.006;4.720;2023-06-10T07:02:15;5.30;;;3.50;;
18435;SDS011;9346;52.006;4.720;2023-06-10T07:04:45;3.53;;;3.10;;
18435;SDS011;9346;52.006;4.720;2023-06-10T07:07:14;5.80;;;3.27;;
18435;SDS011;9346;52.006;4.720;2023-06-10T07:09:40;7.80;;;2.83;;
18435;SDS011;9346;52.006;4.720;2023-06-10T07:12:08;9.80;;;3.87;;
18435;SDS011;9346;52.006;4.720;2023-06-10T07:14:36;6.37;;;3.50;;
18435;SDS011;9346;52.006;4.720;2023-06-10T07:17:03;4.27;;;3.10;;
18435;SDS011;9346;52.006;4.720;2023-06-10T07:19:30;5.30;;;3.43;;
18435;SDS011;9346;52.006;4.720;2023-06-10T07:21:59;4.10;;;2.90;;
18435;SDS011;9346;52.006;4.720;2023-06-10T07:24:26;4.00;;;3.33;;
18435;SDS011;9346;52.006;4.720;2023-06-10T07:26:53;4.20;;;3.20;;
18435;SDS011;9346;52.006;4.720;2023-06-10T07:29:20;8.63;;;3.70;;
18435;SDS011;9346;52.006;4.720;2023-06-10T07:31:47;3.47;;;3.07;;
18435;SDS011;9346;52.006;4.720;2023-06-10T07:34:14;6.50;;;4.17;;
18435;SDS011;9346;52.006;4.720;2023-06-10T07:36:41;3.83;;;2.97;;
18435;SDS011;9346;52.006;4.720;2023-06-10T07:39:09;6.30;;;3.53;;
18435;SDS011;9346;52.006;4.720;2023-06-10T07:41:36;4.90;;;3.23;;
18435;SDS011;9346;52.006;4.720;2023-06-10T07:44:03;4.63;;;3.20;;
18435;SDS011;9346;52.006;4.720;2023-06-10T07:46:30;4.23;;;3.33;;
18435;SDS011;9346;52.006;4.720;2023-06-10T07:48:57;5.13;;;3.50;;
18435;SDS011;9346;52.006;4.720;2023-06-10T07:51:24;6.73;;;3.47;;
18435;SDS011;9346;52.006;4.720;2023-06-10T07:53:51;4.73;;;3.40;;
18435;SDS011;9346;52.006;4.720;2023-06-10T07:56:20;3.60;;;3.17;;
18435;SDS011;9346;52.006;4.720;2023-06-10T07:58:47;5.13;;;2.80;;
18435;SDS011;9346;52.006;4.720;2023-06-10T08:01:14;4.73;;;2.97;;
18435;SDS011;9346;52.006;4.720;2023-06-10T08:03:41;4.70;;;3.17;;
18435;SDS011;9346;52.006;4.720;2023-06-10T08:06:09;6.27;;;3.83;;
18435;SDS011;9346;52.006;4.720;2023-06-10T08:08:36;3.97;;;2.93;;
18435;SDS011;9346;52.006;4.720;2023-06-10T08:11:06;3.75;;;3.08;;
18435;SDS011;9346;52.006;4.720;2023-06-10T08:13:35;5.17;;;3.10;;
18435;SDS011;9346;52.006;4.720;2023-06-10T08:16:03;3.33;;;2.77;;
18435;SDS011;9346;52.006;4.720;2023-06-10T08:18:30;4.03;;;2.95;;
18435;SDS011;9346;52.006;4.720;2023-06-10T08:20:58;5.03;;;3.03;;
18435;SDS011;9346;52.006;4.720;2023-06-10T08:23:25;5.17;;;3.73;;
18435;SDS011;9346;52.006;4.720;2023-06-10T08:25:52;4.73;;;3.60;;
18435;SDS011;9346;52.006;4.720;2023-06-10T08:28:19;4.70;;;3.17;;
18435;SDS011;9346;52.006;4.720;2023-06-10T08:30:48;4.73;;;3.13;;
18435;SDS011;9346;52.006;4.720;2023-06-10T08:33:15;4.50;;;3.40;;
18435;SDS011;9346;52.006;4.720;2023-06-10T08:35:42;6.77;;;3.67;;
18435;SDS011;9346;52.006;4.720;2023-06-10T08:38:10;5.73;;;3.13;;
18435;SDS011;9346;52.006;4.720;2023-06-10T08:40:37;4.33;;;3.23;;
18435;SDS011;9346;52.006;4.720;2023-06-10T08:43:05;5.40;;;3.80;;
18435;SDS011;9346;52.006;4.720;2023-06-10T08:48:52;4.68;;;3.10;;
18435;SDS011;9346;52.006;4.720;2023-06-10T08:51:26;3.87;;;3.30;;
18435;SDS011;9346;52.006;4.720;2023-06-10T08:53:57;5.65;;;3.13;;
18435;SDS011;9346;52.006;4.720;2023-06-10T08:56:28;3.80;;;2.97;;
18435;SDS011;9346;52.006;4.720;2023-06-10T08:58:57;4.50;;;3.27;;
18435;SDS011;9346;52.006;4.720;2023-06-10T09:01:25;4.37;;;3.50;;
18435;SDS011;9346;52.006;4.720;2023-06-10T09:03:54;5.82;;;3.65;;
18435;SDS011;9346;52.006;4.720;2023-06-10T09:06:22;5.20;;;3.35;;
18435;SDS011;9346;52.006;4.720;2023-06-10T09:08:49;5.27;;;3.37;;
18435;SDS011;9346;52.006;4.720;2023-06-10T09:11:17;5.10;;;2.90;;
18435;SDS011;9346;52.006;4.720;2023-06-10T09:13:44;5.47;;;3.83;;
18435;SDS011;9346;52.006;4.720;2023-06-10T09:16:11;6.13;;;3.60;;
18435;SDS011;9346;52.006;4.720;2023-06-10T09:18:39;7.70;;;3.67;;
18435;SDS011;9346;52.006;4.720;2023-06-10T09:21:07;3.75;;;3.20;;
18435;SDS011;9346;52.006;4.720;2023-06-10T09:23:34;4.20;;;3.47;;
18435;SDS011;9346;52.006;4.720;2023-06-10T09:26:07;3.88;;;3.28;;
18435;SDS011;9346;52.006;4.720;2023-06-10T09:28:35;4.35;;;3.17;;
18435;SDS011;9346;52.006;4.720;2023-06-10T09:31:02;5.97;;;3.53;;
18435;SDS011;9346;52.006;4.720;2023-06-10T09:33:32;5.68;;;3.20;;
18435;SDS011;9346;52.006;4.720;2023-06-10T09:36:03;5.20;;;3.55;;
18435;SDS011;9346;52.006;4.720;2023-06-10T09:38:32;5.10;;;3.28;;
18435;SDS011;9346;52.006;4.720;2023-06-10T09:41:00;5.20;;;3.38;;
18435;SDS011;9346;52.006;4.720;2023-06-10T09:43:40;4.30;;;2.90;;
18435;SDS011;9346;52.006;4.720;2023-06-10T09:46:14;5.82;;;3.10;;
18435;SDS011;9346;52.006;4.720;2023-06-10T09:48:42;5.43;;;3.40;;
18435;SDS011;9346;52.006;4.720;2023-06-10T09:51:10;4.13;;;3.25;;
18435;SDS011;9346;52.006;4.720;2023-06-10T09:53:41;4.28;;;3.30;;
18435;SDS011;9346;52.006;4.720;2023-06-10T09:56:08;3.50;;;2.78;;
18435;SDS011;9346;52.006;4.720;2023-06-10T09:58:35;5.78;;;3.20;;
18435;SDS011;9346;52.006;4.720;2023-06-10T10:01:05;3.80;;;3.00;;
18435;SDS011;9346;52.006;4.720;2023-06-10T10:03:33;3.90;;;3.00;;
18435;SDS011;9346;52.006;4.720;2023-06-10T10:06:00;4.53;;;3.22;;
18435;SDS011;9346;52.006;4.720;2023-06-10T10:08:27;3.38;;;2.92;;
18435;SDS011;9346;52.006;4.720;2023-06-10T10:10:57;4.45;;;3.42;;
18435;SDS011;9346;52.006;4.720;2023-06-10T10:13:25;4.32;;;3.05;;
18435;SDS011;9346;52.006;4.720;2023-06-10T10:15:54;3.95;;;3.17;;
18435;SDS011;9346;52.006;4.720;2023-06-10T10:18:25;3.40;;;3.10;;
18435;SDS011;9346;52.006;4.720;2023-06-10T10:20:59;4.68;;;3.15;;
18435;SDS011;9346;52.006;4.720;2023-06-10T10:23:31;4.25;;;3.20;;
18435;SDS011;9346;52.006;4.720;2023-06-10T10:26:04;4.07;;;3.15;;
18435;SDS011;9346;52.006;4.720;2023-06-10T10:28:37;5.00;;;3.50;;
18435;SDS011;9346;52.006;4.720;2023-06-10T10:31:13;4.30;;;3.20;;
18435;SDS011;9346;52.006;4.720;2023-06-10T10:33:50;4.55;;;3.67;;
18435;SDS011;9346;52.006;4.720;2023-06-10T10:36:22;5.35;;;3.00;;
18435;SDS011;9346;52.006;4.720;2023-06-10T10:38:49;4.57;;;3.38;;
18435;SDS011;9346;52.006;4.720;2023-06-10T10:41:18;6.35;;;3.60;;
18435;SDS011;9346;52.006;4.720;2023-06-10T10:43:47;4.25;;;3.30;;
18435;SDS011;9346;52.006;4.720;2023-06-10T10:46:16;5.25;;;3.47;;
18435;SDS011;9346;52.006;4.720;2023-06-10T10:48:44;3.72;;;2.97;;
18435;SDS011;9346;52.006;4.720;2023-06-10T10:51:12;4.47;;;3.50;;
18435;SDS011;9346;52.006;4.720;2023-06-10T10:53:42;4.00;;;3.50;;
18435;SDS011;9346;52.006;4.720;2023-06-10T10:56:12;5.03;;;3.22;;
18435;SDS011;9346;52.006;4.720;2023-06-10T10:58:45;4.07;;;3.28;;
18435;SDS011;9346;52.006;4.720;2023-06-10T11:01:39;6.60;;;3.67;;
18435;SDS011;9346;52.006;4.720;2023-06-10T11:04:06;3.15;;;2.85;;
18435;SDS011;9346;52.006;4.720;2023-06-10T11:06:34;3.50;;;3.20;;
18435;SDS011;9346;52.006;4.720;2023-06-10T11:09:01;3.78;;;3.22;;
18435;SDS011;9346;52.006;4.720;2023-06-10T11:11:52;4.90;;;3.65;;
18435;SDS011;9346;52.006;4.720;2023-06-10T11:14:27;3.35;;;3.05;;
18435;SDS011;9346;52.006;4.720;2023-06-10T11:16:56;3.47;;;3.10;;
18435;SDS011;9346;52.006;4.720;2023-06-10T11:19:31;4.28;;;3.50;;
18435;SDS011;9346;52.006;4.720;2023-06-10T11:22:00;4.60;;;3.38;;
18435;SDS011;9346;52.006;4.720;2023-06-10T11:24:28;4.20;;;3.28;;
18435;SDS011;9346;52.006;4.720;2023-06-10T11:29:59;5.65;;;3.33;;
18435;SDS011;9346;52.006;4.720;2023-06-10T11:32:45;3.53;;;3.22;;
18435;SDS011;9346;52.006;4.720;2023-06-10T11:35:17;4.65;;;3.42;;
18435;SDS011;9346;52.006;4.720;2023-06-10T11:37:46;4.55;;;3.45;;
18435;SDS011;9346;52.006;4.720;2023-06-10T11:40:13;4.40;;;3.72;;
18435;SDS011;9346;52.006;4.720;2023-06-10T11:42:40;3.90;;;3.35;;
18435;SDS011;9346;52.006;4.720;2023-06-10T11:45:14;3.42;;;3.13;;
18435;SDS011;9346;52.006;4.720;2023-06-10T11:47:54;4.53;;;3.17;;
18435;SDS011;9346;52.006;4.720;2023-06-10T11:50:27;4.00;;;3.53;;
18435;SDS011;9346;52.006;4.720;2023-06-10T11:52:55;4.28;;;3.30;;
18435;SDS011;9346;52.006;4.720;2023-06-10T11:55:23;3.47;;;3.17;;
18435;SDS011;9346;52.006;4.720;2023-06-10T11:57:51;4.13;;;3.55;;
18435;SDS011;9346;52.006;4.720;2023-06-10T12:00:24;4.15;;;3.33;;
18435;SDS011;9346;52.006;4.720;2023-06-10T12:02:55;5.63;;;3.33;;
18435;SDS011;9346;52.006;4.720;2023-06-10T12:05:23;4.05;;;2.92;;
18435;SDS011;9346;52.006;4.720;2023-06-10T12:08:05;3.97;;;3.30;;
18435;SDS011;9346;52.006;4.720;2023-06-10T12:10:39;4.95;;;3.15;;
18435;SDS011;9346;52.006;4.720;2023-06-10T12:13:06;5.30;;;2.97;;
18435;SDS011;9346;52.006;4.720;2023-06-10T12:15:35;3.17;;;2.88;;
18435;SDS011;9346;52.006;4.720;2023-06-10T12:18:02;4.40;;;3.60;;
18435;SDS011;9346;52.006;4.720;2023-06-10T12:20:30;3.60;;;3.10;;
18435;SDS011;9346;52.006;4.720;2023-06-10T12:22:58;4.13;;;3.60;;
18435;SDS011;9346;52.006;4.720;2023-06-10T12:25:26;4.18;;;3.05;;
18435;SDS011;9346;52.006;4.720;2023-06-10T12:27:55;3.38;;;3.08;;
18435;SDS011;9346;52.006;4.720;2023-06-10T12:30:24;4.70;;;3.40;;
18435;SDS011;9346;52.006;4.720;2023-06-10T12:32:54;3.00;;;2.70;;
18435;SDS011;9346;52.006;4.720;2023-06-10T12:35:22;3.92;;;2.88;;
18435;SDS011;9346;52.006;4.720;2023-06-10T12:37:54;4.45;;;3.03;;
18435;SDS011;9346;52.006;4.720;2023-06-10T12:40:25;5.32;;;3.55;;
18435;SDS011;9346;52.006;4.720;2023-06-10T12:42:52;4.20;;;2.90;;
18435;SDS011;9346;52.006;4.720;2023-06-10T12:45:25;3.45;;;3.08;;
18435;SDS011;9346;52.006;4.720;2023-06-10T12:48:03;3.42;;;3.13;;
18435;SDS011;9346;52.006;4.720;2023-06-10T12:50:32;3.33;;;2.80;;
18435;SDS011;9346;52.006;4.720;2023-06-10T12:52:59;4.07;;;3.47;;
18435;SDS011;9346;52.006;4.720;2023-06-10T12:55:26;3.45;;;3.15;;
18435;SDS011;9346;52.006;4.720;2023-06-10T12:57:54;6.18;;;3.13;;
18435;SDS011;9346;52.006;4.720;2023-06-10T13:00:22;4.05;;;3.60;;
18435;SDS011;9346;52.006;4.720;2023-06-10T13:02:51;3.50;;;3.17;;
18435;SDS011;9346;52.006;4.720;2023-06-10T13:05:20;3.45;;;3.15;;
18435;SDS011;9346;52.006;4.720;2023-06-10T13:07:47;3.55;;;3.22;;
18435;SDS011;9346;52.006;4.720;2023-06-10T13:10:14;5.30;;;2.72;;
18435;SDS011;9346;52.006;4.720;2023-06-10T13:12:42;2.92;;;2.65;;
18435;SDS011;9346;52.006;4.720;2023-06-10T13:15:10;4.25;;;3.08;;
18435;SDS011;9346;52.006;4.720;2023-06-10T13:17:37;3.70;;;3.30;;
18435;SDS011;9346;52.006;4.720;2023-06-10T13:20:05;3.55;;;3.13;;
18435;SDS011;9346;52.006;4.720;2023-06-10T13:22:35;3.10;;;2.80;;
18435;SDS011;9346;52.006;4.720;2023-06-10T13:25:02;3.63;;;3.33;;
18435;SDS011;9346;52.006;4.720;2023-06-10T13:27:30;4.25;;;3.05;;
18435;SDS011;9346;52.006;4.720;2023-06-10T13:29:57;8.35;;;3.30;;
18435;SDS011;9346;52.006;4.720;2023-06-10T13:32:24;4.07;;;3.67;;
18435;SDS011;9346;52.006;4.720;2023-06-10T13:34:51;4.40;;;3.80;;
18435;SDS011;9346;52.006;4.720;2023-06-10T13:37:19;4.10;;;3.03;;
18435;SDS011;9346;52.006;4.720;2023-06-10T13:39:48;4.90;;;3.15;;
18435;SDS011;9346;52.006;4.720;2023-06-10T13:42:15;4.22;;;3.83;;
18435;SDS011;9346;52.006;4.720;2023-06-10T13:44:42;3.85;;;3.28;;
18435;SDS011;9346;52.006;4.720;2023-06-10T13:47:09;3.28;;;2.97;;
18435;SDS011;9346;52.006;4.720;2023-06-10T13:49:36;3.53;;;3.15;;
18435;SDS011;9346;52.006;4.720;2023-06-10T13:52:04;5.68;;;3.05;;
18435;SDS011;9346;52.006;4.720;2023-06-10T13:54:31;3.50;;;3.00;;
18435;SDS011;9346;52.006;4.720;2023-06-10T13:57:02;3.17;;;2.63;;
18435;SDS011;9346;52.006;4.720;2023-06-10T13:59:30;4.57;;;3.83;;
18435;SDS011;9346;52.006;4.720;2023-06-10T14:01:57;3.25;;;2.95;;
18435;SDS011;9346;52.006;4.720;2023-06-10T14:04:24;3.22;;;2.92;;
18435;SDS011;9346;52.006;4.720;2023-06-10T14:06:51;4.10;;;3.70;;
18435;SDS011;9346;52.006;4.720;2023-06-10T14:09:18;3.67;;;3.30;;
18435;SDS011;9346;52.006;4.720;2023-06-10T14:11:45;3.75;;;3.08;;
18435;SDS011;9346;52.006;4.720;2023-06-10T14:14:14;3.28;;;2.92;;
18435;SDS011;9346;52.006;4.720;2023-06-10T14:16:42;4.30;;;3.40;;
18435;SDS011;9346;52.006;4.720;2023-06-10T14:19:09;4.60;;;3.33;;
18435;SDS011;9346;52.006;4.720;2023-06-10T14:21:36;3.20;;;2.90;;
18435;SDS011;9346;52.006;4.720;2023-06-10T14:24:03;4.05;;;3.38;;
18435;SDS011;9346;52.006;4.720;2023-06-10T14:26:30;3.70;;;3.10;;
18435;SDS011;9346;52.006;4.720;2023-06-10T14:28:57;3.47;;;3.17;;
18435;SDS011;9346;52.006;4.720;2023-06-10T14:31:26;3.78;;;3.22;;
18435;SDS011;9346;52.006;4.720;2023-06-10T14:33:53;3.53;;;2.75;;
18435;SDS011;9346;52.006;4.720;2023-06-10T14:36:20;4.40;;;3.20;;
18435;SDS011;9346;52.006;4.720;2023-06-10T14:38:47;5.90;;;2.85;;
18435;SDS011;9346;52.006;4.720;2023-06-10T14:41:14;3.90;;;3.50;;
18435;SDS011;9346;52.006;4.720;2023-06-10T14:43:40;3.22;;;2.92;;
18435;SDS011;9346;52.006;4.720;2023-06-10T14:46:07;5.55;;;3.30;;
18435;SDS011;9346;52.006;4.720;2023-06-10T14:48:36;3.45;;;3.00;;
18435;SDS011;9346;52.006;4.720;2023-06-10T14:51:03;3.95;;;3.08;;
18435;SDS011;9346;52.006;4.720;2023-06-10T14:53:30;3.30;;;3.00;;
18435;SDS011;9346;52.006;4.720;2023-06-10T14:55:57;3.15;;;2.65;;
18435;SDS011;9346;52.006;4.720;2023-06-10T14:58:27;6.00;;;3.17;;
18435;SDS011;9346;52.006;4.720;2023-06-10T15:00:54;3.30;;;2.63;;
18435;SDS011;9346;52.006;4.720;2023-06-10T15:03:21;3.20;;;2.90;;
18435;SDS011;9346;52.006;4.720;2023-06-10T15:05:49;3.85;;;2.95;;
18435;SDS011;9346;52.006;4.720;2023-06-10T15:08:16;3.83;;;2.88;;
18435;SDS011;9346;52.006;4.720;2023-06-10T15:10:43;2.83;;;2.50;;
18435;SDS011;9346;52.006;4.720;2023-06-10T15:13:10;3.50;;;3.13;;